createdAt,value
2023-02-03T00:01:03.956Z,101087.88
2023-02-03T00:06:05.487Z,101085.41
2023-02-03T00:11:08.037Z,101075.75
2023-02-03T00:16:09.073Z,101064.97
2023-02-03T00:21:09.912Z,101059.94
2023-02-03T00:26:13.947Z,101059.25
2023-02-03T00:31:18.000Z,101066.97
2023-02-03T00:36:20.176Z,101054.63
2023-02-03T00:41:22.982Z,101052.03
2023-02-03T00:46:25.339Z,101041.75
2023-02-03T00:51:25.986Z,101027.09
2023-02-03T00:56:29.916Z,101019.19
2023-02-03T01:01:30.683Z,101005.34
2023-02-03T01:06:31.423Z,100994.31
2023-02-03T01:11:33.754Z,100982.84
2023-02-03T01:16:38.160Z,100971.84
2023-02-03T01:21:38.881Z,100961.47
2023-02-03T01:26:40.870Z,100950.19
2023-02-03T01:31:43.347Z,100931.34
2023-02-03T01:36:44.315Z,100919.13
2023-02-03T01:41:46.399Z,100909.28
2023-02-03T01:46:50.604Z,100901.41
2023-02-03T01:51:53.473Z,100907.50
2023-02-03T01:57:00.001Z,100912.78
2023-02-03T02:02:02.973Z,100895.38
2023-02-03T02:07:04.291Z,100881.72
2023-02-03T02:12:06.653Z,100861.28
2023-02-03T02:17:19.872Z,100833.81
2023-02-03T02:22:26.312Z,100841.63
2023-02-03T02:27:46.137Z,100836.34
2023-02-03T02:33:01.169Z,100840.66
2023-02-03T02:38:07.893Z,100803.53
2023-02-03T02:43:13.979Z,100813.94
2023-02-03T02:48:24.166Z,100780.44
2023-02-03T02:53:27.723Z,100782.22
2023-02-03T02:58:33.086Z,100770.22
2023-02-03T03:03:35.117Z,100751.59
2023-02-03T03:08:40.027Z,100729.22
2023-02-03T03:13:49.179Z,100721.56
2023-02-03T03:18:57.221Z,100709.50
2023-02-03T03:24:02.806Z,100703.59
2023-02-03T03:29:11.756Z,100701.91
2023-02-03T03:34:15.540Z,100694.28
2023-02-03T03:39:22.875Z,100694.38
2023-02-03T03:44:28.712Z,100683.19
2023-02-03T03:49:35.078Z,100686.75
2023-02-03T03:54:39.302Z,100692.00
2023-02-03T03:59:42.510Z,100686.75
2023-02-03T04:04:47.363Z,100656.84
2023-02-03T04:09:49.465Z,100639.06
2023-02-03T04:14:50.207Z,100616.72
2023-02-03T04:19:52.205Z,100608.38
2023-02-03T04:24:52.868Z,100598.81
2023-02-03T04:29:53.582Z,100589.09
2023-02-03T04:34:55.551Z,100573.84
2023-02-03T04:39:56.463Z,100573.09
2023-02-03T04:44:57.120Z,100575.81
2023-02-03T04:49:59.090Z,100587.00
2023-02-03T04:54:59.824Z,100565.53
2023-02-03T05:00:00.491Z,100567.31
2023-02-03T05:05:02.503Z,100562.09
2023-02-03T05:10:03.188Z,100549.19
2023-02-03T05:15:03.874Z,100550.94
2023-02-03T05:20:06.605Z,100537.16
2023-02-03T05:25:08.249Z,100529.41
2023-02-03T05:30:10.923Z,100519.94
2023-02-03T05:35:12.914Z,100510.50
2023-02-03T05:40:32.232Z,100502.75
2023-02-03T05:45:33.253Z,100506.19
2023-02-03T05:50:38.483Z,100500.16
2023-02-03T05:55:42.376Z,100521.72
2023-02-03T06:00:43.030Z,100532.97
2023-02-03T06:05:45.062Z,100495.00
2023-02-03T06:10:45.719Z,100507.09
2023-02-03T06:15:46.354Z,100518.31
2023-02-03T06:20:48.680Z,100501.06
2023-02-03T06:25:53.175Z,100482.94
2023-02-03T06:30:54.038Z,100468.25
2023-02-03T06:35:56.320Z,100471.72
2023-02-03T06:40:56.955Z,100468.28
2023-02-03T06:45:57.737Z,100476.03
2023-02-03T06:50:59.780Z,100472.59
2023-02-03T06:56:02.207Z,100459.66
2023-02-03T07:01:07.208Z,100448.44
2023-02-03T07:06:09.496Z,100432.91
2023-02-03T07:11:12.086Z,100417.38
2023-02-03T07:16:12.959Z,100407.03
2023-02-03T07:21:15.765Z,100399.25
2023-02-03T07:26:17.636Z,100398.38
2023-02-03T07:31:18.478Z,100398.34
2023-02-03T07:36:20.589Z,100399.19
2023-02-03T07:41:21.284Z,100397.41
2023-02-03T07:46:22.019Z,100369.78
2023-02-03T07:51:24.084Z,100375.00
2023-02-03T07:56:24.847Z,100361.22
2023-02-03T08:01:25.927Z,100362.13
2023-02-03T08:06:27.913Z,100370.81
2023-02-03T08:11:28.547Z,100367.34
2023-02-03T08:16:29.299Z,100351.84
2023-02-03T08:21:32.037Z,100354.41
2023-02-03T08:26:32.771Z,100344.03
2023-02-03T08:31:33.559Z,100329.38
2023-02-03T08:36:37.078Z,100341.47
2023-02-03T08:41:37.737Z,100345.75
2023-02-03T08:46:43.482Z,100321.59
2023-02-03T08:51:46.825Z,100317.25
2023-02-03T08:56:47.779Z,100325.91
2023-02-03T09:01:48.615Z,100332.81
2023-02-03T09:06:50.645Z,100327.66
2023-02-03T09:11:51.289Z,100327.66
2023-02-03T09:16:51.974Z,100303.50
2023-02-03T09:21:54.014Z,100297.47
2023-02-03T09:26:55.183Z,100284.53
2023-02-03T09:31:55.974Z,100268.13
2023-02-03T09:36:57.976Z,100260.34
2023-02-03T09:42:16.769Z,100242.19
2023-02-03T09:47:21.598Z,100220.69
2023-02-03T09:52:26.373Z,100200.84
2023-02-03T09:57:28.800Z,100209.47
2023-02-03T10:02:45.095Z,100194.81
2023-02-03T10:07:57.521Z,100173.25
2023-02-03T10:13:13.753Z,100169.72
2023-02-03T10:18:20.527Z,100163.66
2023-02-03T10:23:29.489Z,100140.34
2023-02-03T10:28:33.819Z,100136.06
2023-02-03T10:33:34.523Z,100133.47
2023-02-03T10:38:48.569Z,100117.13
2023-02-03T10:43:52.664Z,100106.72
2023-02-03T10:48:53.431Z,100084.28
2023-02-03T10:53:55.484Z,100104.13
2023-02-03T10:58:58.631Z,100068.69
2023-02-03T11:04:01.917Z,100062.63
2023-02-03T11:09:22.645Z,100059.06
2023-02-03T11:14:23.300Z,100065.00
2023-02-03T11:19:24.039Z,100091.63
2023-02-03T11:24:29.414Z,100057.06
2023-02-03T11:29:32.253Z,100058.06
2023-02-03T11:34:37.918Z,100046.88
2023-02-03T11:39:39.961Z,100053.84
2023-02-03T11:44:40.601Z,100061.59
2023-02-03T11:50:10.053Z,100021.84
2023-02-03T11:55:22.342Z,100021.00
2023-02-03T12:00:33.592Z,100029.53
2023-02-03T12:05:45.689Z,99954.41
2023-02-03T12:11:01.016Z,99915.38
2023-02-03T12:16:15.330Z,99909.22
2023-02-03T12:21:34.870Z,99953.25
2023-02-03T12:26:44.001Z,99959.28
2023-02-03T12:31:49.852Z,99955.72
2023-02-03T12:36:57.937Z,99971.94
2023-02-03T12:42:04.285Z,99942.53
2023-02-03T12:47:13.615Z,99934.53
2023-02-03T12:52:23.565Z,99966.41
2023-02-03T12:57:32.886Z,99941.19
2023-02-03T13:02:43.598Z,99923.13
2023-02-03T13:07:50.395Z,99968.31
2023-02-03T13:12:56.961Z,100017.06
2023-02-03T13:18:02.404Z,100097.75
2023-02-03T13:23:07.064Z,100031.88
2023-02-03T13:28:19.986Z,100033.69
2023-02-03T13:33:45.604Z,100053.44
2023-02-03T13:39:06.023Z,100067.09
2023-02-03T13:44:15.208Z,100036.88
2023-02-03T13:49:23.787Z,100036.72
2023-02-03T13:54:29.484Z,100066.78
2023-02-03T13:59:42.356Z,100083.16
2023-02-03T14:04:54.380Z,100066.72
2023-02-03T14:10:21.290Z,100097.78
2023-02-03T14:15:31.307Z,100075.28
2023-02-03T14:20:52.799Z,100085.75
2023-02-03T14:25:56.848Z,100134.06
2023-02-03T14:31:12.620Z,100109.88
2023-02-03T14:36:31.745Z,100090.91
2023-02-03T14:41:46.474Z,100106.44
2023-02-03T14:47:05.370Z,100121.97
2023-02-03T14:52:19.094Z,100129.72
2023-02-03T14:57:36.694Z,100109.91
2023-02-03T15:03:19.999Z,100120.31
2023-02-03T15:08:42.903Z,100122.91
2023-02-03T15:13:43.591Z,100135.88
2023-02-03T15:18:45.694Z,100145.41
2023-02-03T15:23:49.377Z,100148.91
2023-02-03T15:28:57.161Z,100155.84
2023-02-03T15:34:04.579Z,100166.16
2023-02-03T15:39:13.487Z,100169.63
2023-02-03T15:44:29.261Z,100190.34
2023-02-03T15:49:39.005Z,100186.03
2023-02-03T15:54:46.017Z,100182.53
2023-02-03T15:59:54.514Z,100199.75
2023-02-03T16:04:57.095Z,100190.22
2023-02-03T16:09:58.897Z,100198.00
2023-02-03T16:15:01.935Z,100206.63
2023-02-03T16:20:28.135Z,100209.19
2023-02-03T16:25:31.331Z,100216.91
2023-02-03T16:30:49.785Z,100230.72
2023-02-03T16:36:09.291Z,100230.69
2023-02-03T16:41:35.122Z,100237.59
2023-02-03T16:46:53.533Z,100236.69
2023-02-03T16:51:55.624Z,100231.50
2023-02-03T16:56:58.477Z,100241.03
2023-02-03T17:01:59.505Z,100269.56
2023-02-03T17:07:02.949Z,100260.88
2023-02-03T17:12:04.157Z,100277.28
2023-02-03T17:17:04.832Z,100291.13
2023-02-03T17:22:07.665Z,100285.06
2023-02-03T17:27:08.384Z,100294.53
2023-02-03T17:32:09.247Z,100287.63
2023-02-03T17:37:11.429Z,100291.94
2023-02-03T17:58:04.590Z,100286.75
2023-02-03T18:03:05.252Z,100306.59
2023-02-03T18:08:16.089Z,100301.41
2023-02-03T18:13:18.289Z,100297.09
2023-02-03T18:18:20.774Z,100318.69
2023-02-03T18:23:23.039Z,100344.63
2023-02-03T18:28:24.093Z,100351.53
2023-02-03T18:33:24.824Z,100377.47
2023-02-03T18:38:27.044Z,100349.00
2023-02-03T18:43:27.745Z,100375.78
2023-02-03T18:48:28.660Z,100398.22
2023-02-03T18:53:32.366Z,100370.59
2023-02-03T18:58:33.030Z,100375.78
2023-02-03T19:03:34.360Z,100408.63
2023-02-03T19:08:36.418Z,100415.53
2023-02-03T19:13:37.129Z,100381.97
2023-02-03T19:18:37.823Z,100379.38
2023-02-03T19:23:39.932Z,100378.50
2023-02-03T19:28:41.480Z,100389.69
2023-02-03T19:33:42.394Z,100371.56
2023-02-03T19:38:44.563Z,100407.81
2023-02-03T19:43:47.519Z,100373.28
2023-02-03T19:48:48.972Z,100415.59
2023-02-03T19:53:52.482Z,100392.34
2023-02-03T19:58:54.401Z,100410.47
2023-02-03T20:03:55.112Z,100419.09
2023-02-03T20:08:57.203Z,100423.38
2023-02-03T20:13:57.979Z,100409.56
2023-02-03T20:19:00.606Z,100440.63
2023-02-03T20:24:02.636Z,100464.75
2023-02-03T20:29:03.374Z,100429.47
2023-02-03T20:34:05.074Z,100422.50
2023-02-03T20:39:07.177Z,100438.88
2023-02-03T20:44:11.039Z,100422.47
2023-02-03T20:49:12.714Z,100427.59
2023-02-03T20:54:18.238Z,100430.13
2023-02-03T20:59:20.470Z,100429.25
2023-02-03T21:04:38.956Z,100415.50
2023-02-03T21:09:41.039Z,100429.28
2023-02-03T21:14:43.523Z,100440.47
2023-02-03T21:19:44.259Z,100445.56
2023-02-03T21:24:51.095Z,100441.22
2023-02-03T21:29:55.737Z,100456.69
2023-02-03T21:34:56.541Z,100452.41
2023-02-03T21:39:58.566Z,100461.88
2023-02-03T21:44:59.274Z,100461.06
2023-02-03T21:50:01.833Z,100474.84
2023-02-03T21:55:13.554Z,100467.94
2023-02-03T22:00:39.224Z,100487.75
2023-02-03T22:05:39.953Z,100501.53
2023-02-03T22:10:41.974Z,100508.41
2023-02-03T22:15:43.320Z,100523.91
2023-02-03T22:20:43.953Z,100557.41
2023-02-03T22:25:46.135Z,100540.97
2023-02-03T22:30:47.124Z,100557.25
2023-02-03T22:35:47.862Z,100535.72
2023-02-03T22:40:49.911Z,100535.66
2023-02-03T22:45:50.682Z,100549.41
2023-02-03T22:50:51.387Z,100561.47
2023-02-03T22:55:53.391Z,100545.13
2023-02-03T23:00:54.098Z,100552.84
2023-02-03T23:05:56.447Z,100551.94
2023-02-03T23:10:58.783Z,100557.09
2023-02-03T23:15:59.519Z,100565.69
2023-02-03T23:21:00.215Z,100576.03
2023-02-03T23:26:02.193Z,100586.34
2023-02-03T23:31:03.840Z,100577.75
2023-02-03T23:36:04.839Z,100559.66
2023-02-03T23:41:06.855Z,100578.59
2023-02-03T23:46:07.791Z,100605.28
2023-02-03T23:51:08.535Z,100609.50
2023-02-03T23:56:10.667Z,100668.84
